createdAt,value
2022-11-08T00:00:40.091Z,100656.95
2022-11-08T00:01:42.388Z,100656.92
2022-11-08T00:02:44.454Z,100677.27
2022-11-08T00:03:46.521Z,100676.28
2022-11-08T00:04:48.401Z,100687.44
2022-11-08T00:05:50.388Z,100692.19
2022-11-08T00:06:52.351Z,100681.52
2022-11-08T00:07:54.230Z,100690.31
2022-11-08T00:08:56.094Z,100696.33
2022-11-08T00:09:57.961Z,100691.14
2022-11-08T00:11:04.938Z,100685.84
2022-11-08T00:12:07.107Z,100683.20
2022-11-08T00:13:08.980Z,100690.92
2022-11-08T00:14:11.114Z,100692.48
2022-11-08T00:15:13.187Z,100697.13
2022-11-08T00:16:15.301Z,100708.32
2022-11-08T00:17:18.705Z,100699.46
2022-11-08T00:18:20.694Z,100704.87
2022-11-08T00:19:22.714Z,100701.30
2022-11-08T00:20:24.683Z,100700.49
2022-11-08T00:21:26.964Z,100712.95
2022-11-08T00:22:31.305Z,100710.11
2022-11-08T00:23:34.181Z,100700.77
2022-11-08T00:24:36.061Z,100695.25
2022-11-08T00:25:38.021Z,100690.77
2022-11-08T00:26:40.059Z,100680.41
2022-11-08T00:27:41.985Z,100677.70
2022-11-08T00:28:44.462Z,100674.20
2022-11-08T00:29:46.641Z,100670.81
2022-11-08T00:30:48.618Z,100673.69
2022-11-08T00:31:50.498Z,100676.48
2022-11-08T00:32:52.351Z,100673.59
2022-11-08T00:33:54.214Z,100674.34
2022-11-08T00:34:56.082Z,100673.51
2022-11-08T00:35:59.084Z,100669.03
2022-11-08T00:37:02.803Z,100665.37
2022-11-08T00:38:04.688Z,100661.89
2022-11-08T00:39:06.560Z,100654.41
2022-11-08T00:40:10.762Z,100656.06
2022-11-08T00:41:12.750Z,100654.36
2022-11-08T00:42:15.131Z,100651.52
2022-11-08T00:43:17.214Z,100650.59
2022-11-08T00:44:19.169Z,100649.71
2022-11-08T00:45:21.050Z,100659.27
2022-11-08T00:46:23.013Z,100644.50
2022-11-08T00:47:24.982Z,100646.23
2022-11-08T00:48:26.849Z,100643.56
2022-11-08T00:49:29.130Z,100653.13
2022-11-08T00:50:31.214Z,100646.13
2022-11-08T00:51:33.795Z,100647.97
2022-11-08T00:52:35.677Z,100650.48
2022-11-08T00:53:39.486Z,100641.14
2022-11-08T00:54:42.583Z,100651.52
2022-11-08T00:55:44.459Z,100649.25
2022-11-08T00:56:47.881Z,100650.19
2022-11-08T00:58:04.681Z,100645.18
2022-11-08T00:58:53.683Z,100646.73
2022-11-08T00:59:55.545Z,100645.81
2022-11-08T01:00:58.306Z,100643.14
2022-11-08T01:02:00.502Z,100643.05
2022-11-08T01:03:02.566Z,100643.97
2022-11-08T01:04:05.467Z,100637.02
2022-11-08T01:05:08.475Z,100636.14
2022-11-08T01:06:12.802Z,100642.36
2022-11-08T01:07:14.812Z,100638.86
2022-11-08T01:08:18.434Z,100638.78
2022-11-08T01:09:21.632Z,100639.66
2022-11-08T01:10:23.805Z,100648.67
2022-11-08T01:11:26.374Z,100646.89
2022-11-08T01:12:28.267Z,100650.31
2022-11-08T01:13:31.436Z,100647.70
2022-11-08T01:14:33.350Z,100642.78
2022-11-08T01:15:38.833Z,100641.83
2022-11-08T01:16:41.511Z,100643.54
2022-11-08T01:17:43.382Z,100640.84
2022-11-08T01:18:46.634Z,100630.28
2022-11-08T01:19:48.532Z,100623.31
2022-11-08T01:20:50.501Z,100619.81
2022-11-08T01:21:52.366Z,100612.81
2022-11-08T01:22:54.352Z,100621.58
2022-11-08T01:23:56.593Z,100622.51
2022-11-08T01:24:59.378Z,100626.05
2022-11-08T01:26:04.229Z,100629.73
2022-11-08T01:27:06.148Z,100628.30
2022-11-08T01:28:09.510Z,100626.33
2022-11-08T01:29:11.417Z,100620.16
2022-11-08T01:30:13.921Z,100608.73
2022-11-08T01:31:18.287Z,100612.17
2022-11-08T01:32:20.308Z,100607.72
2022-11-08T01:33:22.238Z,100617.33
2022-11-08T01:34:24.383Z,100625.95
2022-11-08T01:35:27.151Z,100617.28
2022-11-08T01:36:29.705Z,100624.20
2022-11-08T01:37:31.602Z,100624.20
2022-11-08T01:38:34.492Z,100635.52
2022-11-08T01:39:36.468Z,100631.09
2022-11-08T01:40:44.369Z,100635.44
2022-11-08T01:41:46.400Z,100631.06
2022-11-08T01:42:48.300Z,100643.54
2022-11-08T01:43:53.777Z,100648.62
2022-11-08T01:46:16.223Z,100642.54
2022-11-08T01:47:18.165Z,100662.17
2022-11-08T01:48:20.683Z,100652.53
2022-11-08T01:49:41.622Z,100657.53
2022-11-08T01:50:43.933Z,100651.53
2022-11-08T01:52:01.862Z,100653.30
2022-11-08T01:53:03.782Z,100648.25
2022-11-08T01:54:09.415Z,100647.97
2022-11-08T01:55:33.511Z,100630.41
2022-11-08T01:56:38.453Z,100638.31
2022-11-08T01:57:44.134Z,100632.15
2022-11-08T01:58:49.552Z,100628.59
2022-11-08T01:59:54.476Z,100624.30
2022-11-08T02:00:59.420Z,100627.87
2022-11-08T02:02:01.926Z,100628.52
2022-11-08T02:03:06.595Z,100620.59
2022-11-08T02:04:09.741Z,100611.89
2022-11-08T02:05:15.635Z,100609.11
2022-11-08T02:06:19.269Z,100609.11
2022-11-08T02:07:22.150Z,100605.59
2022-11-08T02:08:30.652Z,100610.92
2022-11-08T02:09:35.569Z,100605.61
2022-11-08T02:10:40.786Z,100617.07
2022-11-08T02:11:43.739Z,100611.99
2022-11-08T02:12:46.826Z,100617.02
2022-11-08T02:13:48.803Z,100603.13
2022-11-08T02:14:51.638Z,100611.31
2022-11-08T02:15:54.050Z,100602.33
2022-11-08T02:16:56.332Z,100604.86
2022-11-08T02:17:58.714Z,100597.12
2022-11-08T02:19:00.788Z,100608.83
2022-11-08T02:20:03.380Z,100601.78
2022-11-08T02:21:18.059Z,100600.75
2022-11-08T02:22:32.945Z,100600.67
2022-11-08T02:23:56.463Z,100608.39
2022-11-08T02:24:58.842Z,100610.90
2022-11-08T02:26:01.433Z,100619.61
2022-11-08T02:27:04.120Z,100615.20
2022-11-08T02:28:06.786Z,100622.25
2022-11-08T02:29:27.332Z,100615.54
2022-11-08T02:30:33.991Z,100624.33
2022-11-08T02:31:35.911Z,100620.30
2022-11-08T02:32:39.399Z,100621.73
2022-11-08T02:33:41.957Z,100623.44
2022-11-08T02:34:47.621Z,100621.58
2022-11-08T02:35:53.334Z,100619.11
2022-11-08T02:36:55.778Z,100622.53
2022-11-08T02:37:57.790Z,100635.01
2022-11-08T02:38:59.665Z,100641.75
2022-11-08T02:40:03.330Z,100633.20
2022-11-08T02:41:05.921Z,100630.53
2022-11-08T02:42:13.770Z,100637.67
2022-11-08T02:43:16.299Z,100632.66
2022-11-08T02:44:18.189Z,100642.12
2022-11-08T02:45:20.069Z,100642.95
2022-11-08T02:46:22.024Z,100629.83
2022-11-08T02:47:24.118Z,100617.52
2022-11-08T02:48:26.686Z,100623.57
2022-11-08T02:49:28.647Z,100613.88
2022-11-08T02:50:30.605Z,100624.30
2022-11-08T02:51:32.538Z,100624.45
2022-11-08T02:52:34.394Z,100619.06
2022-11-08T02:53:36.266Z,100608.55
2022-11-08T02:54:38.156Z,100603.23
2022-11-08T02:55:40.041Z,100604.42
2022-11-08T02:56:42.055Z,100612.09
2022-11-08T02:57:43.935Z,100619.02
2022-11-08T02:58:45.826Z,100607.83
2022-11-08T02:59:47.792Z,100605.95
2022-11-08T03:00:49.755Z,100615.04
2022-11-08T03:01:51.712Z,100607.83
2022-11-08T03:02:56.619Z,100609.41
2022-11-08T03:03:59.362Z,100616.34
2022-11-08T03:05:01.236Z,100618.03
2022-11-08T03:06:03.727Z,100619.06
2022-11-08T03:07:06.330Z,100616.37
2022-11-08T03:08:08.618Z,100620.11
2022-11-08T03:09:10.526Z,100612.14
2022-11-08T03:10:14.211Z,100611.16
2022-11-08T03:11:16.136Z,100607.59
2022-11-08T03:12:18.104Z,100605.98
2022-11-08T03:13:20.001Z,100615.48
2022-11-08T03:14:23.071Z,100605.25
2022-11-08T03:15:25.367Z,100612.89
2022-11-08T03:16:29.234Z,100614.86
2022-11-08T03:17:31.565Z,100614.08
2022-11-08T03:18:33.430Z,100614.69
2022-11-08T03:19:35.293Z,100611.27
2022-11-08T03:20:37.271Z,100607.64
2022-11-08T03:21:39.149Z,100605.88
2022-11-08T03:22:41.118Z,100601.47
2022-11-08T03:23:43.001Z,100601.37
2022-11-08T03:24:44.878Z,100601.37
2022-11-08T03:25:46.769Z,100609.14
2022-11-08T03:26:49.271Z,100610.48
2022-11-08T03:27:51.176Z,100612.30
2022-11-08T03:28:53.048Z,100613.16
2022-11-08T03:29:54.919Z,100604.22
2022-11-08T03:30:57.282Z,100606.01
2022-11-08T03:31:59.152Z,100610.47
2022-11-08T03:33:02.577Z,100603.37
2022-11-08T03:34:04.472Z,100608.55
2022-11-08T03:35:08.287Z,100604.20
2022-11-08T03:36:11.793Z,100604.97
2022-11-08T03:37:13.664Z,100614.88
2022-11-08T03:38:16.332Z,100605.25
2022-11-08T03:39:18.615Z,100605.08
2022-11-08T03:40:21.823Z,100604.92
2022-11-08T03:41:23.707Z,100603.47
2022-11-08T03:42:25.785Z,100606.78
2022-11-08T03:43:27.695Z,100613.68
2022-11-08T03:44:30.783Z,100613.78
2022-11-08T03:45:32.661Z,100611.37
2022-11-08T03:46:34.671Z,100612.19
2022-11-08T03:47:37.891Z,100609.41
2022-11-08T03:48:39.795Z,100618.36
2022-11-08T03:49:41.756Z,100612.09
2022-11-08T03:50:45.849Z,100608.55
2022-11-08T03:51:47.958Z,100610.20
2022-11-08T03:52:53.172Z,100611.94
2022-11-08T03:53:55.116Z,100612.05
2022-11-08T03:54:56.994Z,100619.06
2022-11-08T03:55:59.967Z,100612.74
2022-11-08T03:57:01.893Z,100615.33
2022-11-08T03:58:03.765Z,100617.07
2022-11-08T03:59:06.383Z,100614.35
2022-11-08T04:00:11.198Z,100626.68
2022-11-08T04:01:13.274Z,100621.53
2022-11-08T04:02:15.443Z,100619.11
2022-11-08T04:03:17.523Z,100618.83
2022-11-08T04:04:19.558Z,100622.25
2022-11-08T04:05:22.308Z,100619.77
2022-11-08T04:06:24.631Z,100626.31
2022-11-08T04:07:26.996Z,100621.69
2022-11-08T04:08:29.895Z,100617.97
2022-11-08T04:09:31.812Z,100621.39
2022-11-08T04:10:34.928Z,100623.13
2022-11-08T04:11:36.796Z,100619.89
2022-11-08T04:12:44.052Z,100628.03
2022-11-08T04:13:46.282Z,100614.71
2022-11-08T04:14:49.082Z,100613.83
2022-11-08T04:15:54.409Z,100617.28
2022-11-08T04:16:56.610Z,100615.33
2022-11-08T04:17:58.479Z,100616.37
2022-11-08T04:19:01.613Z,100611.78
2022-11-08T04:20:04.706Z,100609.27
2022-11-08T04:21:10.371Z,100619.66
2022-11-08T04:22:12.275Z,100615.23
2022-11-08T04:23:15.585Z,100611.59
2022-11-08T04:24:20.371Z,100619.45
2022-11-08T04:25:22.304Z,100611.56
2022-11-08T04:26:24.271Z,100615.15
2022-11-08T04:27:26.133Z,100614.18
2022-11-08T04:28:33.195Z,100615.92
2022-11-08T04:29:35.140Z,100620.25
2022-11-08T04:30:37.520Z,100614.16
2022-11-08T04:31:39.684Z,100617.69
2022-11-08T04:32:41.593Z,100611.62
2022-11-08T04:33:44.016Z,100619.64
2022-11-08T04:34:45.880Z,100619.61
2022-11-08T04:35:48.554Z,100613.38
2022-11-08T04:36:50.606Z,100619.81
2022-11-08T04:38:00.645Z,100621.31
2022-11-08T04:39:03.395Z,100621.45
2022-11-08T04:40:06.970Z,100617.22
2022-11-08T04:41:14.306Z,100627.54
2022-11-08T04:42:16.426Z,100617.92
2022-11-08T04:43:18.321Z,100616.11
2022-11-08T04:44:20.183Z,100614.77
2022-11-08T04:45:22.254Z,100611.11
2022-11-08T04:46:27.025Z,100609.27
2022-11-08T04:47:29.093Z,100623.67
2022-11-08T04:48:31.719Z,100629.87
2022-11-08T04:49:33.596Z,100625.25
2022-11-08T04:50:35.778Z,100615.87
2022-11-08T04:51:37.636Z,100612.27
2022-11-08T04:52:40.529Z,100621.86
2022-11-08T04:53:42.822Z,100626.28
2022-11-08T04:54:46.028Z,100627.16
2022-11-08T04:55:48.046Z,100615.72
2022-11-08T04:56:50.517Z,100627.11
2022-11-08T04:57:56.179Z,100626.19
2022-11-08T04:58:59.853Z,100612.05
2022-11-08T05:00:02.376Z,100619.09
2022-11-08T05:01:05.870Z,100618.65
2022-11-08T05:02:08.025Z,100612.30
2022-11-08T05:03:11.848Z,100607.19
2022-11-08T05:04:13.743Z,100606.11
2022-11-08T05:05:15.795Z,100615.54
2022-11-08T05:06:21.374Z,100614.61
2022-11-08T05:07:23.376Z,100614.66
2022-11-08T05:08:25.233Z,100624.17
2022-11-08T05:09:27.104Z,100608.39
2022-11-08T05:10:29.077Z,100621.42
2022-11-08T05:11:31.137Z,100614.56
2022-11-08T05:12:33.084Z,100627.64
2022-11-08T05:13:36.533Z,100621.58
2022-11-08T05:14:38.415Z,100620.82
2022-11-08T05:15:40.279Z,100625.15
2022-11-08T05:16:42.365Z,100627.94
2022-11-08T05:17:44.797Z,100628.03
2022-11-08T05:18:47.098Z,100629.91
2022-11-08T05:19:48.986Z,100622.09
2022-11-08T05:20:57.982Z,100626.36
2022-11-08T05:21:59.897Z,100624.45
2022-11-08T05:23:03.013Z,100626.97
2022-11-08T05:24:06.975Z,100634.94
2022-11-08T05:25:08.925Z,100637.53
2022-11-08T05:26:12.946Z,100629.58
2022-11-08T05:27:15.147Z,100627.74
2022-11-08T05:28:18.728Z,100630.23
2022-11-08T05:29:20.949Z,100638.20
2022-11-08T05:30:22.939Z,100643.48
2022-11-08T05:31:24.935Z,100644.62
2022-11-08T05:32:26.802Z,100647.21
2022-11-08T05:33:30.235Z,100647.99
2022-11-08T05:34:32.114Z,100647.05
2022-11-08T05:35:34.201Z,100642.56
2022-11-08T05:36:36.412Z,100646.25
2022-11-08T05:37:40.574Z,100651.58
2022-11-08T05:38:43.182Z,100650.52
2022-11-08T05:39:45.073Z,100648.58
2022-11-08T05:40:47.066Z,100649.84
2022-11-08T05:41:48.987Z,100650.66
2022-11-08T05:42:53.530Z,100652.22
2022-11-08T05:43:57.048Z,100649.55
2022-11-08T05:45:05.169Z,100638.96
2022-11-08T05:46:05.411Z,100645.98
2022-11-08T05:47:07.605Z,100647.70
2022-11-08T05:48:11.460Z,100648.06
2022-11-08T05:49:13.500Z,100650.86
2022-11-08T05:50:19.367Z,100655.27
2022-11-08T05:51:20.297Z,100649.84
2022-11-08T05:52:22.244Z,100647.09
2022-11-08T05:53:24.338Z,100648.77
2022-11-08T05:54:26.193Z,100636.50
2022-11-08T05:55:28.584Z,100640.80
2022-11-08T05:56:30.672Z,100639.77
2022-11-08T05:57:32.741Z,100643.30
2022-11-08T05:58:36.331Z,100647.09
2022-11-08T05:59:38.235Z,100639.06
2022-11-08T06:00:40.240Z,100649.69
2022-11-08T06:01:42.978Z,100634.66
2022-11-08T06:02:45.363Z,100640.09
2022-11-08T06:03:47.915Z,100647.99
2022-11-08T06:04:49.908Z,100641.75
2022-11-08T06:05:51.781Z,100645.52
2022-11-08T06:06:54.075Z,100647.53
2022-11-08T06:07:56.121Z,100664.83
2022-11-08T06:08:58.028Z,100656.87
2022-11-08T06:09:59.891Z,100654.15
2022-11-08T06:11:08.407Z,100657.83
2022-11-08T06:12:12.119Z,100651.55
2022-11-08T06:13:15.520Z,100649.75
2022-11-08T06:14:17.527Z,100651.48
2022-11-08T06:15:19.618Z,100650.80
2022-11-08T06:16:24.023Z,100654.98
2022-11-08T06:17:30.100Z,100657.45
2022-11-08T06:18:32.857Z,100646.20
2022-11-08T06:19:34.922Z,100645.63
2022-11-08T06:20:36.936Z,100655.75
2022-11-08T06:21:38.793Z,100661.88
2022-11-08T06:22:40.674Z,100654.10
2022-11-08T06:23:42.555Z,100658.27
2022-11-08T06:24:44.421Z,100670.30
2022-11-08T06:25:47.752Z,100669.70
2022-11-08T06:26:49.999Z,100677.60
2022-11-08T06:27:51.867Z,100671.72
2022-11-08T06:28:53.733Z,100676.05
2022-11-08T06:29:56.220Z,100668.88
2022-11-08T06:31:00.254Z,100663.59
2022-11-08T06:32:02.151Z,100669.56
2022-11-08T06:33:04.008Z,100663.31
2022-11-08T06:34:05.874Z,100653.20
2022-11-08T06:35:08.755Z,100653.50
2022-11-08T06:36:11.464Z,100649.22
2022-11-08T06:37:15.153Z,100653.25
2022-11-08T06:38:17.231Z,100644.30
2022-11-08T06:39:19.108Z,100641.53
2022-11-08T06:40:21.057Z,100637.15
2022-11-08T06:41:23.355Z,100633.67
2022-11-08T06:42:26.164Z,100638.98
2022-11-08T06:43:29.368Z,100638.03
2022-11-08T06:44:31.225Z,100628.37
2022-11-08T06:45:33.077Z,100633.02
2022-11-08T06:46:35.047Z,100636.65
2022-11-08T06:47:36.923Z,100633.67
2022-11-08T06:48:38.999Z,100633.52
2022-11-08T06:49:40.999Z,100630.88
2022-11-08T06:50:43.067Z,100627.64
2022-11-08T06:51:44.927Z,100627.89
2022-11-08T06:52:46.799Z,100625.08
2022-11-08T06:53:48.657Z,100626.50
2022-11-08T06:54:50.526Z,100636.30
2022-11-08T06:55:52.392Z,100638.89
2022-11-08T06:56:54.668Z,100644.02
2022-11-08T06:57:57.019Z,100629.30
2022-11-08T06:58:58.988Z,100624.68
2022-11-08T07:00:01.031Z,100618.41
2022-11-08T07:01:04.714Z,100631.30
2022-11-08T07:02:09.427Z,100630.93
2022-11-08T07:03:13.990Z,100636.06
2022-11-08T07:04:16.223Z,100646.73
2022-11-08T07:05:18.150Z,100646.79
2022-11-08T07:06:20.212Z,100639.77
2022-11-08T07:07:22.111Z,100639.51
2022-11-08T07:08:24.514Z,100649.71
2022-11-08T07:09:26.441Z,100648.80
2022-11-08T07:10:30.802Z,100651.61
2022-11-08T07:11:32.970Z,100652.59
2022-11-08T07:12:34.821Z,100644.63
2022-11-08T07:13:36.699Z,100646.31
2022-11-08T07:14:38.572Z,100650.59
2022-11-08T07:15:41.261Z,100649.57
2022-11-08T07:16:43.233Z,100652.27
2022-11-08T07:17:45.636Z,100649.66
2022-11-08T07:18:47.644Z,100642.68
2022-11-08T07:19:50.684Z,100651.47
2022-11-08T07:20:53.341Z,100647.81
2022-11-08T07:21:55.241Z,100644.53
2022-11-08T07:22:57.970Z,100642.59
2022-11-08T07:23:59.845Z,100634.88
2022-11-08T07:25:01.845Z,100634.16
2022-11-08T07:26:05.392Z,100635.77
2022-11-08T07:27:07.478Z,100632.16
2022-11-08T07:28:15.649Z,100633.80
2022-11-08T07:33:38.725Z,100639.34
2022-11-08T07:34:40.598Z,100649.95
2022-11-08T07:35:45.055Z,100653.50
2022-11-08T07:36:47.061Z,100648.30
2022-11-08T07:37:49.811Z,100655.47
2022-11-08T07:38:52.127Z,100655.16
2022-11-08T07:39:54.014Z,100656.95
2022-11-08T07:40:58.234Z,100660.70
2022-11-08T07:42:00.120Z,100657.11
2022-11-08T07:43:17.264Z,100653.31
2022-11-08T07:44:05.791Z,100653.16
2022-11-08T07:45:09.690Z,100649.57
2022-11-08T07:46:11.888Z,100654.70
2022-11-08T07:47:13.958Z,100650.34
2022-11-08T07:48:15.851Z,100645.13
2022-11-08T07:49:18.771Z,100652.94
2022-11-08T07:50:20.768Z,100647.64
2022-11-08T07:51:22.668Z,100645.84
2022-11-08T07:52:24.779Z,100647.75
2022-11-08T07:53:28.889Z,100645.84
2022-11-08T07:54:30.768Z,100638.11
2022-11-08T07:55:35.521Z,100642.66
2022-11-08T07:56:37.529Z,100648.72
2022-11-08T07:57:39.414Z,100641.48
2022-11-08T07:58:41.383Z,100646.81
2022-11-08T07:59:43.274Z,100645.81
2022-11-08T08:00:45.257Z,100651.83
2022-11-08T08:01:47.538Z,100654.50
2022-11-08T08:02:54.807Z,100645.98
2022-11-08T08:03:56.932Z,100647.55
2022-11-08T08:04:58.832Z,100650.23
2022-11-08T08:06:01.749Z,100652.73
2022-11-08T08:07:04.921Z,100651.80
2022-11-08T08:08:08.531Z,100651.80
2022-11-08T08:09:10.676Z,100646.02
2022-11-08T08:10:13.236Z,100647.75
2022-11-08T08:11:15.130Z,100647.86
2022-11-08T08:12:16.987Z,100645.91
2022-11-08T08:13:19.286Z,100643.87
2022-11-08T08:14:21.448Z,100642.84
2022-11-08T08:15:24.352Z,100646.38
2022-11-08T08:16:26.358Z,100642.84
2022-11-08T08:17:28.218Z,100643.61
2022-11-08T08:18:30.116Z,100640.99
2022-11-08T08:19:32.138Z,100636.02
2022-11-08T08:20:36.368Z,100642.78
2022-11-08T08:21:38.591Z,100647.94
2022-11-08T08:22:45.170Z,100641.05
2022-11-08T08:23:47.215Z,100638.52
2022-11-08T08:24:49.088Z,100633.83
2022-11-08T08:25:51.740Z,100638.00
2022-11-08T08:26:53.746Z,100635.50
2022-11-08T08:27:57.772Z,100630.14
2022-11-08T08:28:59.654Z,100627.70
2022-11-08T08:30:01.645Z,100629.34
2022-11-08T08:31:04.917Z,100629.44
2022-11-08T08:32:06.812Z,100632.95
2022-11-08T08:33:28.049Z,100633.83
2022-11-08T08:34:15.856Z,100632.00
2022-11-08T08:35:18.149Z,100630.89
2022-11-08T08:36:20.426Z,100631.62
2022-11-08T08:37:22.449Z,100635.95
2022-11-08T08:38:24.800Z,100640.17
2022-11-08T08:39:26.672Z,100641.66
2022-11-08T08:40:28.742Z,100634.69
2022-11-08T08:41:30.640Z,100643.18
2022-11-08T08:42:33.346Z,100642.45
2022-11-08T08:43:35.222Z,100636.99
2022-11-08T08:44:37.105Z,100640.50
2022-11-08T08:45:39.002Z,100640.34
2022-11-08T08:46:41.072Z,100644.92
2022-11-08T08:47:42.933Z,100640.50
2022-11-08T08:48:44.814Z,100636.99
2022-11-08T08:49:46.703Z,100636.83
2022-11-08T08:50:48.732Z,100640.47
2022-11-08T08:51:50.603Z,100642.98
2022-11-08T08:53:01.275Z,100638.73
2022-11-08T08:54:03.541Z,100641.13
2022-11-08T08:55:06.535Z,100641.66
2022-11-08T08:56:08.666Z,100637.33
2022-11-08T08:57:10.547Z,100638.70
2022-11-08T08:58:12.428Z,100636.80
2022-11-08T09:01:39.256Z,100636.54
2022-11-08T09:02:28.448Z,100639.03
2022-11-08T09:03:30.926Z,100635.69
2022-11-08T09:04:32.884Z,100635.69
2022-11-08T09:05:35.193Z,100634.08
2022-11-08T09:06:37.335Z,100641.06
2022-11-08T09:07:40.851Z,100638.28
2022-11-08T09:08:43.336Z,100634.73
2022-11-08T09:09:45.209Z,100633.09
2022-11-08T09:10:53.146Z,100635.62
2022-11-08T09:11:55.154Z,100637.26
2022-11-08T09:12:57.058Z,100631.09
2022-11-08T09:13:58.938Z,100640.90
2022-11-08T09:15:01.651Z,100635.81
2022-11-08T09:16:04.842Z,100637.33
2022-11-08T09:17:06.723Z,100636.44
2022-11-08T09:18:08.632Z,100639.71
2022-11-08T09:19:10.750Z,100637.33
2022-11-08T09:20:13.755Z,100630.70
2022-11-08T09:21:15.693Z,100632.22
2022-11-08T09:22:17.631Z,100630.24
2022-11-08T09:23:19.982Z,100629.42
2022-11-08T09:24:22.258Z,100637.13
2022-11-08T09:25:24.117Z,100641.41
2022-11-08T09:26:26.100Z,100630.08
2022-11-08T09:27:29.314Z,100631.91
2022-11-08T09:28:34.003Z,100634.53
2022-11-08T09:29:36.202Z,100634.50
2022-11-08T09:30:38.203Z,100639.61
2022-11-08T09:31:40.188Z,100634.50
2022-11-08T09:33:49.079Z,100636.17
2022-11-08T09:34:51.950Z,100636.14
2022-11-08T09:35:54.000Z,100635.39
2022-11-08T09:36:55.962Z,100639.64
2022-11-08T09:38:01.041Z,100628.91
2022-11-08T09:39:03.286Z,100636.71
2022-11-08T09:40:06.962Z,100621.22
2022-11-08T09:41:35.989Z,100635.22
2022-11-08T09:44:01.997Z,100629.12
2022-11-08T09:45:16.899Z,100636.06
2022-11-08T09:46:37.574Z,100638.45
2022-11-08T09:47:42.791Z,100633.31
2022-11-08T09:48:45.979Z,100636.71
2022-11-08T09:50:23.876Z,100632.42
2022-11-08T09:51:27.489Z,100637.05
2022-11-08T09:52:31.933Z,100636.81
2022-11-08T09:54:01.778Z,100638.41
2022-11-08T09:55:27.168Z,100619.16
2022-11-08T09:56:37.388Z,100638.13
2022-11-08T09:57:59.875Z,100635.93
2022-11-08T09:59:05.588Z,100631.67
2022-11-08T10:00:11.485Z,100628.23
2022-11-08T10:01:13.772Z,100624.41
2022-11-08T10:02:19.156Z,100624.41
2022-11-08T10:03:23.713Z,100625.97
2022-11-08T10:04:29.291Z,100633.70
2022-11-08T10:06:49.194Z,100620.88
2022-11-08T10:08:09.847Z,100626.42
2022-11-08T10:09:39.049Z,100635.26
2022-11-08T10:11:14.131Z,100634.44
2022-11-08T10:12:29.045Z,100629.89
2022-11-08T10:13:37.813Z,100623.80
2022-11-08T10:14:52.601Z,100626.31
2022-11-08T10:16:03.157Z,100632.30
2022-11-08T10:17:23.744Z,100622.31
2022-11-08T10:18:31.936Z,100619.65
2022-11-08T10:20:06.326Z,100622.31
2022-11-08T10:21:20.290Z,100623.50
2022-11-08T10:22:37.702Z,100621.39
2022-11-08T10:23:45.578Z,100630.08
2022-11-08T10:24:57.195Z,100618.68
2022-11-08T10:26:02.199Z,100623.01
2022-11-08T10:27:16.773Z,100621.07
2022-11-08T10:28:22.454Z,100616.59
2022-11-08T10:29:36.835Z,100619.98
2022-11-08T10:30:42.411Z,100619.09
2022-11-08T10:31:46.883Z,100608.52
2022-11-08T10:32:54.708Z,100613.97
2022-11-08T10:33:59.627Z,100607.06
2022-11-08T10:35:14.343Z,100614.78
2022-11-08T10:36:26.316Z,100615.47
2022-11-08T10:37:31.196Z,100613.23
2022-11-08T10:38:58.115Z,100619.09
2022-11-08T10:40:04.107Z,100614.00
2022-11-08T10:41:12.715Z,100613.77
2022-11-08T10:42:33.896Z,100618.94
2022-11-08T10:43:43.060Z,100607.38
2022-11-08T10:44:45.242Z,100615.91
2022-11-08T10:45:48.846Z,100610.73
2022-11-08T10:46:57.443Z,100613.24
2022-11-08T10:47:59.696Z,100616.42
2022-11-08T10:50:19.422Z,100617.70
2022-11-08T10:51:21.324Z,100620.83
2022-11-08T10:52:47.783Z,100624.86
2022-11-08T10:53:49.770Z,100616.89
2022-11-08T10:54:57.036Z,100629.91
2022-11-08T10:56:04.062Z,100629.14
2022-11-08T10:57:06.829Z,100618.93
2022-11-08T10:58:33.266Z,100628.46
2022-11-08T10:59:35.856Z,100631.73
2022-11-08T11:00:38.448Z,100626.43
2022-11-08T11:01:45.825Z,100633.30
2022-11-08T11:03:03.834Z,100619.09
2022-11-08T11:04:09.702Z,100625.16
2022-11-08T11:05:21.241Z,100625.06
2022-11-08T11:06:29.797Z,100618.45
2022-11-08T11:07:35.017Z,100623.72
2022-11-08T11:08:40.657Z,100630.59
2022-11-08T11:09:42.820Z,100624.26
2022-11-08T11:10:46.958Z,100623.16
2022-11-08T11:13:14.594Z,100619.98
2022-11-08T11:14:22.093Z,100623.73
2022-11-08T11:15:25.664Z,100618.25
2022-11-08T11:16:27.972Z,100619.27
2022-11-08T11:17:37.222Z,100623.59
2022-11-08T11:18:49.267Z,100619.98
2022-11-08T11:19:54.419Z,100620.92
2022-11-08T11:21:02.978Z,100623.69
2022-11-08T11:22:08.200Z,100620.34
2022-11-08T11:23:11.508Z,100620.03
2022-11-08T11:24:19.515Z,100617.30
2022-11-08T11:25:24.063Z,100614.62
2022-11-08T11:26:30.073Z,100605.84
2022-11-08T11:27:35.812Z,100612.03
2022-11-08T11:28:41.461Z,100609.27
2022-11-08T11:29:43.395Z,100616.36
2022-11-08T11:30:51.663Z,100609.64
2022-11-08T11:31:54.802Z,100617.30
2022-11-08T11:33:03.331Z,100610.36
2022-11-08T11:34:21.538Z,100614.81
2022-11-08T11:35:27.387Z,100621.44
2022-11-08T11:36:29.760Z,100618.62
2022-11-08T11:37:43.984Z,100618.39
2022-11-08T11:38:49.661Z,100621.77
2022-11-08T11:40:01.143Z,100618.15
2022-11-08T11:41:09.814Z,100625.82
2022-11-08T11:42:44.334Z,100632.25
2022-11-08T11:43:37.621Z,100631.30
2022-11-08T11:44:59.939Z,100632.96
2022-11-08T11:46:14.484Z,100632.39
2022-11-08T11:47:22.903Z,100629.86
2022-11-08T11:48:30.722Z,100631.50
2022-11-08T11:49:34.970Z,100631.41
2022-11-08T11:50:43.127Z,100634.84
2022-11-08T11:51:45.217Z,100636.86
2022-11-08T11:52:48.446Z,100637.70
2022-11-08T11:53:50.319Z,100636.76
2022-11-08T11:54:52.193Z,100636.71
2022-11-08T11:56:09.531Z,100639.48
2022-11-08T11:57:33.759Z,100636.86
2022-11-08T11:59:02.371Z,100634.08
2022-11-08T12:00:10.686Z,100638.08
2022-11-08T12:01:19.496Z,100631.67
2022-11-08T12:02:46.570Z,100635.87
2022-11-08T12:04:03.988Z,100637.50
2022-11-08T12:05:32.855Z,100641.88
2022-11-08T12:06:45.333Z,100644.66
2022-11-08T12:07:57.208Z,100636.06
2022-11-08T12:09:14.740Z,100642.96
2022-11-08T12:10:46.469Z,100631.77
2022-11-08T12:12:04.421Z,100645.55
2022-11-08T12:13:30.268Z,100638.50
2022-11-08T12:14:44.536Z,100651.76
2022-11-08T12:16:07.008Z,100644.66
2022-11-08T12:17:27.538Z,100644.66
2022-11-08T12:18:50.673Z,100653.59
2022-11-08T12:20:13.943Z,100644.00
2022-11-08T12:21:22.894Z,100650.95
2022-11-08T12:22:37.865Z,100654.30
2022-11-08T12:24:12.640Z,100649.93
2022-11-08T12:25:18.445Z,100655.29
2022-11-08T12:26:36.556Z,100653.59
2022-11-08T12:27:48.324Z,100651.05
2022-11-08T12:28:57.129Z,100657.22
2022-11-08T12:30:02.812Z,100657.22
2022-11-08T12:31:13.961Z,100650.02
2022-11-08T12:32:37.459Z,100651.71